createdAt,value
2023-01-25T00:01:20.953Z,69.30
2023-01-25T00:03:48.986Z,69.20
2023-01-25T00:06:17.036Z,69.30
2023-01-25T00:08:45.084Z,69.30
2023-01-25T00:11:13.141Z,69.30
2023-01-25T00:13:42.562Z,69.20
2023-01-25T00:16:10.697Z,69.20
2023-01-25T00:18:38.784Z,69.30
2023-01-25T00:21:13.837Z,69.30
2023-01-25T00:23:41.878Z,69.30
2023-01-25T00:26:09.946Z,69.30
2023-01-25T00:28:37.974Z,69.30
2023-01-25T00:31:08.299Z,69.30
2023-01-25T00:33:45.183Z,69.20
2023-01-25T00:36:34.105Z,69.20
2023-01-25T00:39:02.137Z,69.20
2023-01-25T00:41:30.181Z,69.30
2023-01-25T00:43:58.222Z,69.30
2023-01-25T00:46:27.614Z,69.20
2023-01-25T00:48:55.914Z,69.30
2023-01-25T00:51:24.219Z,69.20
2023-01-25T00:53:52.285Z,69.20
2023-01-25T00:56:20.375Z,69.20
2023-01-25T00:58:48.400Z,69.20
2023-01-25T01:01:16.459Z,69.20
2023-01-25T01:03:45.954Z,69.20
2023-01-25T01:06:14.004Z,69.30
2023-01-25T01:08:43.346Z,69.30
2023-01-25T01:11:12.131Z,69.20
2023-01-25T01:13:40.248Z,69.30
2023-01-25T01:16:11.798Z,69.20
2023-01-25T01:18:40.552Z,69.20
2023-01-25T01:21:10.025Z,69.20
2023-01-25T01:23:38.116Z,69.20
2023-01-25T01:26:07.748Z,69.20
2023-01-25T01:28:39.368Z,69.20
2023-01-25T01:31:08.257Z,69.20
2023-01-25T01:33:36.325Z,69.20
2023-01-25T01:36:10.108Z,69.20
2023-01-25T01:38:38.142Z,69.20
2023-01-25T01:41:06.422Z,69.20
2023-01-25T01:43:34.509Z,69.20
2023-01-25T01:46:03.158Z,69.20
2023-01-25T01:48:35.944Z,69.20
2023-01-25T01:51:05.488Z,69.20
2023-01-25T01:53:34.996Z,69.20
2023-01-25T01:56:04.346Z,69.20
2023-01-25T01:58:32.424Z,69.20
2023-01-25T02:01:00.506Z,69.20
2023-01-25T02:03:32.527Z,69.10
2023-01-25T02:06:02.950Z,69.20
2023-01-25T02:08:32.076Z,69.20
2023-01-25T02:11:01.595Z,69.10
2023-01-25T02:13:29.660Z,69.10
2023-01-25T02:15:57.812Z,69.10
2023-01-25T02:18:25.932Z,69.10
2023-01-25T02:20:54.513Z,69.10
2023-01-25T02:23:26.961Z,69.10
2023-01-25T02:25:56.512Z,69.00
2023-01-25T02:28:27.820Z,69.00
2023-01-25T02:30:55.910Z,69.00
2023-01-25T02:33:24.436Z,69.00
2023-01-25T02:35:56.242Z,69.00
2023-01-25T02:38:26.500Z,69.00
2023-01-25T02:40:57.172Z,69.00
2023-01-25T02:43:25.379Z,69.00
2023-01-25T02:45:56.553Z,69.00
2023-01-25T02:48:26.487Z,69.00
2023-01-25T02:50:54.548Z,69.00
2023-01-25T02:53:27.531Z,68.90
2023-01-25T02:55:56.944Z,68.90
2023-01-25T02:58:24.963Z,69.00
2023-01-25T03:00:52.995Z,68.90
2023-01-25T03:03:21.055Z,68.90
2023-01-25T03:05:49.075Z,68.90
2023-01-25T03:08:17.456Z,68.90
2023-01-25T03:10:45.493Z,68.90
2023-01-25T03:13:14.912Z,68.90
2023-01-25T03:15:42.952Z,68.90
2023-01-25T03:18:14.477Z,68.90
2023-01-25T03:20:42.483Z,68.90
2023-01-25T03:23:10.492Z,68.90
2023-01-25T03:25:38.545Z,68.90
2023-01-25T03:28:06.633Z,68.90
2023-01-25T03:30:36.034Z,68.90
2023-01-25T03:33:04.526Z,68.90
2023-01-25T03:35:38.522Z,68.90
2023-01-25T03:38:06.606Z,68.90
2023-01-25T03:40:34.855Z,68.90
2023-01-25T03:43:02.869Z,68.90
2023-01-25T03:45:30.969Z,68.90
2023-01-25T03:48:00.372Z,68.90
2023-01-25T03:50:32.540Z,68.90
2023-01-25T03:53:03.611Z,68.80
2023-01-25T03:55:31.687Z,68.90
2023-01-25T03:57:59.750Z,68.80
2023-01-25T04:00:27.881Z,68.80
2023-01-25T04:02:56.004Z,68.80
2023-01-25T04:05:25.418Z,68.80
2023-01-25T04:07:53.460Z,68.80
2023-01-25T04:10:21.495Z,68.80
2023-01-25T04:12:49.533Z,68.80
2023-01-25T04:15:17.663Z,68.80
2023-01-25T04:17:45.705Z,68.80
2023-01-25T04:20:14.577Z,68.80
2023-01-25T04:22:44.027Z,68.80
2023-01-25T04:25:14.631Z,68.80
2023-01-25T04:27:42.686Z,68.80
2023-01-25T04:30:11.921Z,68.80
2023-01-25T04:32:40.085Z,68.80
2023-01-25T04:35:09.112Z,68.80
2023-01-25T04:37:37.380Z,68.80
2023-01-25T04:40:08.723Z,68.80
2023-01-25T04:42:36.787Z,68.80
2023-01-25T04:45:05.484Z,68.80
2023-01-25T04:47:33.539Z,68.80
2023-01-25T04:50:01.645Z,68.80
2023-01-25T04:52:29.929Z,68.80
2023-01-25T04:54:58.001Z,68.80
2023-01-25T04:57:27.432Z,68.80
2023-01-25T04:59:55.493Z,68.80
2023-01-25T05:02:23.700Z,68.80
2023-01-25T05:04:51.862Z,68.70
2023-01-25T05:07:19.912Z,68.70
2023-01-25T05:09:47.989Z,68.80
2023-01-25T05:12:16.037Z,68.80
2023-01-25T05:15:11.213Z,68.80
2023-01-25T05:17:39.558Z,68.70
2023-01-25T05:20:08.264Z,68.70
2023-01-25T05:22:36.371Z,68.70
2023-01-25T05:25:06.445Z,68.80
2023-01-25T05:27:33.654Z,68.80
2023-01-25T05:30:01.697Z,68.70
2023-01-25T05:32:31.155Z,68.80
2023-01-25T05:35:00.835Z,68.80
2023-01-25T05:37:29.045Z,68.70
2023-01-25T05:39:57.122Z,68.70
2023-01-25T05:42:25.201Z,68.80
2023-01-25T05:44:54.573Z,68.80
2023-01-25T05:47:22.669Z,68.80
2023-01-25T05:49:52.089Z,68.80
2023-01-25T05:52:20.399Z,68.70
2023-01-25T05:54:48.462Z,68.80
2023-01-25T05:57:20.675Z,68.80
2023-01-25T05:59:48.767Z,68.80
2023-01-25T06:02:16.984Z,68.80
2023-01-25T06:04:45.153Z,68.80
2023-01-25T06:07:14.608Z,68.80
2023-01-25T06:09:42.676Z,68.80
2023-01-25T06:12:10.889Z,68.80
2023-01-25T06:14:44.650Z,68.80
2023-01-25T06:17:12.722Z,68.70
2023-01-25T06:19:40.797Z,68.80
2023-01-25T06:22:09.409Z,68.80
2023-01-25T06:24:38.870Z,68.80
2023-01-25T06:27:06.921Z,68.70
2023-01-25T06:29:34.972Z,68.80
2023-01-25T06:32:03.224Z,68.80
2023-01-25T06:34:31.833Z,68.80
2023-01-25T06:36:59.888Z,68.70
2023-01-25T06:39:32.676Z,68.80
2023-01-25T06:42:02.156Z,68.80
2023-01-25T06:44:30.570Z,68.80
2023-01-25T06:46:58.912Z,68.70
2023-01-25T06:49:32.727Z,68.70
2023-01-25T06:52:01.394Z,68.80
2023-01-25T06:54:29.457Z,68.80
2023-01-25T06:56:57.504Z,68.80
2023-01-25T06:59:26.954Z,68.80
2023-01-25T07:01:55.088Z,68.90
2023-01-25T07:04:23.198Z,68.80
2023-01-25T07:06:51.265Z,68.70
2023-01-25T07:09:23.795Z,68.80
2023-01-25T07:11:56.714Z,68.80
2023-01-25T07:14:26.280Z,68.70
2023-01-25T07:16:54.336Z,68.70
2023-01-25T07:19:22.456Z,68.80
2023-01-25T07:21:50.560Z,68.80
2023-01-25T07:24:19.947Z,68.70
2023-01-25T07:26:49.304Z,68.80
2023-01-25T07:29:17.632Z,68.80
2023-01-25T07:31:47.333Z,68.70
2023-01-25T07:34:20.934Z,68.70
2023-01-25T07:36:48.982Z,68.80
2023-01-25T07:39:17.266Z,68.80
2023-01-25T07:41:45.353Z,68.80
2023-01-25T07:44:14.761Z,68.80
2023-01-25T07:46:42.809Z,68.80
2023-01-25T07:49:12.294Z,68.90
2023-01-25T07:51:40.491Z,68.80
2023-01-25T07:54:08.572Z,68.80
2023-01-25T07:56:37.900Z,68.80
2023-01-25T07:59:08.414Z,68.80
2023-01-25T08:01:37.012Z,68.70
2023-01-25T08:04:05.808Z,68.80
2023-01-25T08:06:40.265Z,68.80
2023-01-25T08:09:09.948Z,68.70
2023-01-25T08:11:37.990Z,68.70
2023-01-25T08:14:06.030Z,68.70
2023-01-25T08:16:34.100Z,68.80
2023-01-25T08:19:03.202Z,68.80
2023-01-25T08:21:32.871Z,68.80
2023-01-25T08:24:03.862Z,68.80
2023-01-25T08:26:32.034Z,68.70
2023-01-25T08:29:00.157Z,68.80
2023-01-25T08:31:28.984Z,68.80
2023-01-25T08:33:57.277Z,68.90
2023-01-25T08:36:25.384Z,68.80
2023-01-25T08:38:55.325Z,68.80
2023-01-25T08:41:24.793Z,68.90
2023-01-25T08:43:53.553Z,68.80
2023-01-25T08:46:21.673Z,68.80
2023-01-25T08:48:49.841Z,68.70
2023-01-25T08:51:18.070Z,68.80
2023-01-25T08:53:46.279Z,68.80
2023-01-25T08:56:15.601Z,68.80
2023-01-25T08:58:45.892Z,68.80
2023-01-25T09:01:14.803Z,68.80
2023-01-25T09:03:43.853Z,68.80
2023-01-25T09:06:12.348Z,68.80
2023-01-25T09:08:40.442Z,68.80
2023-01-25T09:11:09.988Z,68.70
2023-01-25T09:13:38.021Z,68.70
2023-01-25T09:16:08.447Z,68.80
2023-01-25T09:18:37.331Z,68.80
2023-01-25T09:21:07.347Z,68.70
2023-01-25T09:23:44.292Z,68.80
2023-01-25T09:26:19.167Z,68.80
2023-01-25T09:28:48.371Z,68.70
2023-01-25T09:31:22.240Z,68.60
2023-01-25T09:33:51.651Z,68.70
2023-01-25T09:36:19.695Z,68.70
2023-01-25T09:38:48.593Z,68.70
2023-01-25T09:41:42.224Z,68.70
2023-01-25T09:44:16.594Z,68.80
2023-01-25T09:46:48.970Z,68.70
2023-01-25T09:49:31.792Z,68.60
2023-01-25T09:52:09.519Z,68.60
2023-01-25T09:54:46.460Z,68.70
2023-01-25T09:57:16.785Z,68.70
2023-01-25T09:59:45.127Z,68.70
2023-01-25T10:02:21.379Z,68.70
2023-01-25T10:04:51.811Z,68.70
2023-01-25T10:07:21.138Z,68.70
2023-01-25T10:09:50.915Z,68.70
2023-01-25T10:12:21.747Z,68.60
2023-01-25T10:14:49.869Z,68.70
2023-01-25T10:17:33.351Z,68.80
2023-01-25T10:20:09.426Z,68.70
2023-01-25T10:22:40.031Z,68.60
2023-01-25T10:25:33.291Z,68.70
2023-01-25T10:28:10.755Z,68.70
2023-01-25T10:30:40.724Z,68.80
2023-01-25T10:33:14.642Z,68.70
2023-01-25T10:35:47.029Z,68.60
2023-01-25T10:38:19.388Z,68.70
2023-01-25T10:40:49.841Z,68.70
2023-01-25T10:43:19.344Z,68.70
2023-01-25T10:45:48.189Z,68.70
2023-01-25T10:48:20.249Z,68.70
2023-01-25T10:50:50.116Z,68.80
2023-01-25T10:53:29.412Z,68.70
2023-01-25T10:56:28.766Z,68.70
2023-01-25T10:59:08.227Z,68.70
2023-01-25T11:01:37.113Z,68.70
2023-01-25T11:04:22.757Z,68.80
2023-01-25T11:06:53.329Z,68.80
2023-01-25T11:09:38.447Z,68.80
2023-01-25T11:12:16.578Z,68.70
2023-01-25T11:14:44.938Z,68.80
2023-01-25T11:17:24.066Z,68.80
2023-01-25T11:20:07.761Z,68.80
2023-01-25T11:22:36.145Z,68.80
2023-01-25T11:25:28.619Z,68.70
2023-01-25T11:28:12.218Z,68.80
2023-01-25T11:30:40.321Z,68.80
2023-01-25T11:33:12.267Z,68.70
2023-01-25T11:36:05.462Z,68.80
2023-01-25T11:38:33.462Z,68.80
2023-01-25T11:41:05.903Z,68.80
2023-01-25T11:43:57.651Z,68.70
2023-01-25T11:46:32.374Z,68.70
2023-01-25T11:49:29.169Z,68.80
2023-01-25T11:52:03.746Z,68.70
2023-01-25T11:54:50.780Z,68.80
2023-01-25T11:57:30.416Z,68.80
2023-01-25T12:00:11.905Z,68.80
2023-01-25T12:03:09.162Z,68.80
2023-01-25T12:05:44.725Z,68.80
2023-01-25T12:08:21.131Z,68.70
2023-01-25T12:10:51.933Z,68.80
2023-01-25T12:13:22.451Z,68.90
2023-01-25T12:16:07.547Z,68.80
2023-01-25T12:18:47.383Z,68.70
2023-01-25T12:21:31.388Z,68.80
2023-01-25T12:24:06.808Z,68.70
2023-01-25T12:26:38.789Z,68.70
2023-01-25T12:29:19.631Z,68.80
2023-01-25T12:31:49.986Z,68.80
2023-01-25T12:34:21.022Z,68.80
2023-01-25T12:36:49.606Z,68.90
2023-01-25T12:39:21.417Z,68.80
2023-01-25T12:41:52.047Z,68.90
2023-01-25T12:44:21.739Z,68.80
2023-01-25T12:46:55.478Z,68.80
2023-01-25T12:49:27.246Z,68.80
2023-01-25T12:51:55.301Z,68.90
2023-01-25T12:54:29.295Z,68.90
2023-01-25T12:57:02.527Z,68.90
2023-01-25T12:59:35.114Z,68.80
2023-01-25T13:02:11.163Z,68.90
2023-01-25T13:04:47.014Z,68.90
2023-01-25T13:07:19.008Z,68.90
2023-01-25T13:09:57.586Z,68.90
2023-01-25T13:12:25.715Z,69.00
2023-01-25T13:14:57.006Z,68.90
2023-01-25T13:17:31.352Z,68.90
2023-01-25T13:19:59.434Z,68.80
2023-01-25T13:22:58.737Z,68.90
2023-01-25T13:25:34.658Z,68.90
2023-01-25T13:28:40.003Z,68.90
2023-01-25T13:31:08.176Z,68.90
2023-01-25T13:33:36.720Z,68.90
2023-01-25T13:36:38.873Z,68.90
2023-01-25T13:39:40.142Z,68.90
2023-01-25T13:42:20.574Z,68.90
2023-01-25T13:44:51.641Z,68.80
2023-01-25T13:47:21.945Z,68.90
2023-01-25T13:49:53.205Z,68.90
2023-01-25T13:52:22.254Z,68.90
2023-01-25T13:54:51.682Z,68.90
2023-01-25T13:57:23.259Z,68.90
2023-01-25T14:00:09.908Z,68.80
2023-01-25T14:02:38.461Z,68.90
2023-01-25T14:05:08.085Z,68.80
2023-01-25T14:07:37.040Z,68.90
2023-01-25T14:10:09.484Z,68.90
2023-01-25T14:12:40.137Z,68.90
2023-01-25T14:15:19.337Z,68.90
2023-01-25T14:17:47.463Z,68.90
2023-01-25T14:20:20.037Z,68.80
2023-01-25T14:22:51.416Z,68.90
2023-01-25T14:25:20.229Z,68.90
2023-01-25T14:27:51.134Z,68.80
2023-01-25T14:30:21.347Z,68.80
2023-01-25T14:32:49.885Z,68.80
2023-01-25T14:38:31.009Z,68.80
2023-01-25T14:41:01.965Z,68.80
2023-01-25T14:43:31.371Z,68.80
2023-01-25T14:45:59.558Z,68.80
2023-01-25T14:48:37.941Z,68.80
2023-01-25T14:51:10.938Z,68.80
2023-01-25T14:53:40.193Z,68.90
2023-01-25T14:56:17.870Z,68.90
2023-01-25T14:58:50.917Z,68.80
2023-01-25T15:01:32.746Z,68.80
2023-01-25T15:04:00.787Z,68.80
2023-01-25T15:06:28.836Z,68.80
2023-01-25T15:08:56.895Z,68.80
2023-01-25T15:11:48.890Z,68.80
2023-01-25T15:14:19.494Z,68.80
2023-01-25T15:16:47.666Z,68.70
2023-01-25T15:19:26.487Z,68.80
2023-01-25T15:21:56.212Z,68.80
2023-01-25T15:24:24.598Z,68.80
2023-01-25T15:26:53.650Z,68.80
2023-01-25T15:29:23.642Z,68.80
2023-01-25T15:31:52.035Z,68.70
2023-01-25T15:34:21.191Z,68.80
2023-01-25T15:36:49.352Z,68.80
2023-01-25T15:39:19.405Z,68.80
2023-01-25T15:41:47.612Z,68.80
2023-01-25T15:44:15.675Z,68.70
2023-01-25T15:46:46.193Z,68.70
2023-01-25T15:49:18.065Z,68.70
2023-01-25T15:51:46.889Z,68.70
2023-01-25T15:54:14.913Z,68.70
2023-01-25T15:56:43.279Z,68.70
2023-01-25T15:59:16.596Z,68.80
2023-01-25T16:01:46.041Z,68.70
2023-01-25T16:04:14.553Z,68.80
2023-01-25T16:06:43.697Z,68.60
2023-01-25T16:09:17.043Z,68.80
2023-01-25T16:11:45.232Z,68.70
2023-01-25T16:14:13.308Z,68.70
2023-01-25T16:16:42.374Z,68.70
2023-01-25T16:19:14.335Z,68.60
2023-01-25T16:21:42.563Z,68.70
2023-01-25T16:24:10.905Z,68.60
2023-01-25T16:26:40.048Z,68.60
2023-01-25T16:29:08.197Z,68.70
2023-01-25T16:31:36.370Z,68.70
2023-01-25T16:34:04.543Z,68.70
2023-01-25T16:36:34.434Z,68.60
2023-01-25T16:39:09.862Z,68.60
2023-01-25T16:41:38.485Z,68.70
2023-01-25T16:44:06.594Z,68.60
2023-01-25T16:46:47.506Z,68.60
2023-01-25T16:49:16.480Z,68.60
2023-01-25T16:51:46.404Z,68.60
2023-01-25T16:54:15.437Z,68.60
2023-01-25T16:56:43.478Z,68.50
2023-01-25T16:59:11.539Z,68.60
2023-01-25T17:01:40.859Z,68.50
2023-01-25T17:04:09.322Z,68.60
2023-01-25T17:06:38.516Z,68.70
2023-01-25T17:09:23.063Z,68.60
2023-01-25T17:11:51.936Z,68.50
2023-01-25T17:14:20.314Z,68.60
2023-01-25T17:16:51.393Z,68.60
2023-01-25T17:19:19.673Z,68.60
2023-01-25T17:21:47.734Z,68.60
2023-01-25T17:24:22.951Z,68.50
2023-01-25T17:26:51.312Z,68.60
2023-01-25T17:29:19.409Z,68.60
2023-01-25T17:31:47.521Z,68.60
2023-01-25T17:34:16.429Z,68.50
2023-01-25T17:36:44.713Z,68.60
2023-01-25T17:39:14.592Z,68.50
2023-01-25T17:41:44.084Z,68.50
2023-01-25T17:44:12.210Z,68.50
2023-01-25T17:46:40.315Z,68.40
2023-01-25T17:49:12.058Z,68.50
2023-01-25T17:51:40.151Z,68.40
2023-01-25T17:54:08.264Z,68.50
2023-01-25T17:56:39.223Z,68.60
2023-01-25T17:59:11.557Z,68.40
2023-01-25T18:01:39.979Z,68.40
2023-01-25T18:04:08.385Z,68.50
2023-01-25T18:06:36.455Z,68.50
2023-01-25T18:09:06.061Z,68.40
2023-01-25T18:11:34.919Z,68.40
2023-01-25T18:14:04.168Z,68.50
2023-01-25T18:16:33.716Z,68.40
2023-01-25T18:19:01.932Z,68.50
2023-01-25T18:21:31.685Z,68.40
2023-01-25T18:24:00.793Z,68.50
2023-01-25T18:26:29.757Z,68.50
2023-01-25T18:29:00.115Z,68.50
2023-01-25T18:31:28.248Z,68.40
2023-01-25T18:33:58.241Z,68.50
2023-01-25T18:36:26.361Z,68.40
2023-01-25T18:38:54.599Z,68.40
2023-01-25T18:41:22.880Z,68.40
2023-01-25T18:43:51.032Z,68.50
2023-01-25T18:46:19.381Z,68.40
2023-01-25T18:48:47.649Z,68.40
2023-01-25T18:51:17.860Z,68.40
2023-01-25T18:53:47.497Z,68.40
2023-01-25T18:56:16.483Z,68.50
2023-01-25T18:58:44.586Z,68.40
2023-01-25T19:01:13.951Z,68.40
2023-01-25T19:03:42.098Z,68.40
2023-01-25T19:06:10.276Z,68.40
2023-01-25T19:08:41.393Z,68.40
2023-01-25T19:11:12.437Z,68.40
2023-01-25T19:13:45.283Z,68.40
2023-01-25T19:16:14.330Z,68.40
2023-01-25T19:18:46.372Z,68.40
2023-01-25T19:21:14.567Z,68.40
2023-01-25T19:23:43.953Z,68.40
2023-01-25T19:26:12.755Z,68.30
2023-01-25T19:28:40.825Z,68.40
2023-01-25T19:31:09.463Z,68.40
2023-01-25T19:33:37.663Z,68.40
2023-01-25T19:36:06.663Z,68.40
2023-01-25T19:38:34.966Z,68.40
2023-01-25T19:41:07.806Z,68.30
2023-01-25T19:43:35.851Z,68.40
2023-01-25T19:46:10.850Z,68.40
2023-01-25T19:48:39.008Z,68.40
2023-01-25T19:51:13.867Z,68.30
2023-01-25T19:53:46.300Z,68.40
2023-01-25T19:56:16.606Z,68.30
2023-01-25T19:58:44.819Z,68.40
2023-01-25T20:01:13.729Z,68.40
2023-01-25T20:03:41.848Z,68.40
2023-01-25T20:06:10.163Z,68.40
2023-01-25T20:08:39.125Z,68.30
2023-01-25T20:11:08.373Z,68.20
2023-01-25T20:13:37.765Z,68.30
2023-01-25T20:16:06.830Z,68.30
2023-01-25T20:18:39.376Z,68.30
2023-01-25T20:21:08.387Z,68.20
2023-01-25T20:23:37.114Z,68.20
2023-01-25T20:26:05.949Z,68.30
2023-01-25T20:28:34.316Z,68.30
2023-01-25T20:31:04.613Z,68.20
2023-01-25T20:33:32.795Z,68.20
2023-01-25T20:36:02.139Z,68.30
2023-01-25T20:38:31.227Z,68.10
2023-01-25T20:41:02.638Z,68.20
2023-01-25T20:43:31.478Z,68.30
2023-01-25T20:45:59.928Z,68.20
2023-01-25T20:48:29.407Z,68.20
2023-01-25T20:51:01.822Z,68.20
2023-01-25T20:53:30.181Z,68.10
2023-01-25T20:55:58.615Z,68.20
2023-01-25T20:58:26.710Z,68.10
2023-01-25T21:00:54.955Z,68.20
2023-01-25T21:03:23.121Z,68.10
2023-01-25T21:05:52.788Z,68.20
2023-01-25T21:08:21.257Z,68.20
2023-01-25T21:10:50.400Z,68.20
2023-01-25T21:13:19.136Z,68.20
2023-01-25T21:15:59.014Z,68.20
2023-01-25T21:18:28.999Z,68.10
2023-01-25T21:21:06.301Z,68.00
2023-01-25T21:23:35.102Z,68.10
2023-01-25T21:26:03.264Z,68.10
2023-01-25T21:28:31.418Z,68.00
2023-01-25T21:30:59.564Z,68.00
2023-01-25T21:33:27.638Z,68.10
2023-01-25T21:35:55.835Z,68.10
2023-01-25T21:38:25.365Z,68.00
2023-01-25T21:40:53.352Z,68.00
2023-01-25T21:43:21.388Z,68.10
2023-01-25T21:46:07.127Z,68.10
2023-01-25T21:48:52.618Z,68.10
2023-01-25T21:51:39.772Z,68.10
2023-01-25T21:54:09.184Z,68.10
2023-01-25T21:56:37.269Z,68.10
2023-01-25T21:59:05.539Z,68.00
2023-01-25T22:01:33.614Z,68.00
2023-01-25T22:04:01.725Z,68.00
2023-01-25T22:06:29.810Z,68.10
2023-01-25T22:08:57.914Z,68.00
2023-01-25T22:11:27.324Z,67.90
2023-01-25T22:13:55.470Z,67.90
2023-01-25T22:16:23.643Z,68.00
2023-01-25T22:18:51.836Z,68.00
2023-01-25T22:21:21.367Z,67.90
2023-01-25T22:23:57.576Z,68.00
2023-01-25T22:26:28.012Z,68.00
2023-01-25T22:28:56.937Z,68.00
2023-01-25T22:31:28.163Z,68.00
2023-01-25T22:33:56.829Z,67.90
2023-01-25T22:36:25.573Z,68.00
2023-01-25T22:38:53.586Z,67.90
2023-01-25T22:41:22.716Z,67.90
2023-01-25T22:43:52.130Z,67.90
2023-01-25T22:46:20.738Z,68.00
2023-01-25T22:48:48.878Z,67.90
2023-01-25T22:51:17.914Z,67.90
2023-01-25T22:53:45.969Z,68.00
2023-01-25T22:56:15.055Z,67.90
2023-01-25T22:58:46.293Z,67.80
2023-01-25T23:01:16.516Z,67.90
2023-01-25T23:03:44.647Z,67.80
2023-01-25T23:06:13.816Z,67.90
2023-01-25T23:08:41.904Z,68.00
2023-01-25T23:11:11.684Z,67.90
2023-01-25T23:13:39.915Z,67.80
2023-01-25T23:16:09.058Z,67.80
2023-01-25T23:18:52.343Z,67.80
2023-01-25T23:21:21.342Z,67.90
2023-01-25T23:23:49.672Z,67.80
2023-01-25T23:26:17.718Z,67.90
2023-01-25T23:28:50.758Z,67.90
2023-01-25T23:31:22.427Z,67.80
2023-01-25T23:33:52.725Z,67.90
2023-01-25T23:36:21.769Z,67.90
2023-01-25T23:38:50.049Z,67.80
2023-01-25T23:41:19.216Z,67.80
2023-01-25T23:43:47.363Z,67.90
2023-01-25T23:46:15.521Z,67.80
2023-01-25T23:48:43.724Z,67.80
2023-01-25T23:51:14.095Z,68.00
2023-01-25T23:53:42.252Z,67.80
2023-01-25T23:56:14.385Z,67.90
2023-01-25T23:58:42.406Z,67.80
